sensor_id;sensor_type;location;lat;lon;timestamp;temperature;humidity
45843;DHT22;31563;51.744;8.252;2022-07-06T00:01:10;25.90;38.00
45843;DHT22;31563;51.744;8.252;2022-07-06T00:03:39;26.00;38.10
45843;DHT22;31563;51.744;8.252;2022-07-06T00:06:07;25.90;38.00
45843;DHT22;31563;51.744;8.252;2022-07-06T00:08:35;25.90;38.00
45843;DHT22;31563;51.744;8.252;2022-07-06T00:11:04;25.90;38.10
45843;DHT22;31563;51.744;8.252;2022-07-06T00:13:34;25.80;38.10
45843;DHT22;31563;51.744;8.252;2022-07-06T00:16:03;25.90;38.10
45843;DHT22;31563;51.744;8.252;2022-07-06T00:18:31;25.90;38.10
45843;DHT22;31563;51.744;8.252;2022-07-06T00:21:00;25.80;38.10
45843;DHT22;31563;51.744;8.252;2022-07-06T00:23:28;25.80;38.20
45843;DHT22;31563;51.744;8.252;2022-07-06T00:25:56;25.80;38.20
45843;DHT22;31563;51.744;8.252;2022-07-06T00:28:24;25.70;38.20
45843;DHT22;31563;51.744;8.252;2022-07-06T00:30:54;25.70;38.40
45843;DHT22;31563;51.744;8.252;2022-07-06T00:33:22;25.70;38.30
45843;DHT22;31563;51.744;8.252;2022-07-06T00:35:50;25.70;38.40
45843;DHT22;31563;51.744;8.252;2022-07-06T00:38:19;25.70;38.30
45843;DHT22;31563;51.744;8.252;2022-07-06T00:40:47;25.70;38.40
45843;DHT22;31563;51.744;8.252;2022-07-06T00:43:16;25.60;38.30
45843;DHT22;31563;51.744;8.252;2022-07-06T00:45:44;25.60;38.40
45843;DHT22;31563;51.744;8.252;2022-07-06T00:48:14;25.60;38.40
45843;DHT22;31563;51.744;8.252;2022-07-06T00:50:42;25.50;38.40
45843;DHT22;31563;51.744;8.252;2022-07-06T00:53:10;25.50;38.50
45843;DHT22;31563;51.744;8.252;2022-07-06T00:55:40;25.50;39.20
45843;DHT22;31563;51.744;8.252;2022-07-06T00:58:10;25.50;38.60
45843;DHT22;31563;51.744;8.252;2022-07-06T01:00:38;25.50;38.70
45843;DHT22;31563;51.744;8.252;2022-07-06T01:03:11;25.40;38.70
45843;DHT22;31563;51.744;8.252;2022-07-06T01:05:41;25.40;38.80
45843;DHT22;31563;51.744;8.252;2022-07-06T01:08:09;25.40;38.80
45843;DHT22;31563;51.744;8.252;2022-07-06T01:10:39;25.30;38.80
45843;DHT22;31563;51.744;8.252;2022-07-06T01:13:07;25.30;38.90
45843;DHT22;31563;51.744;8.252;2022-07-06T01:15:35;25.30;38.90
45843;DHT22;31563;51.744;8.252;2022-07-06T01:18:04;25.30;39.10
45843;DHT22;31563;51.744;8.252;2022-07-06T01:20:33;25.20;39.80
45843;DHT22;31563;51.744;8.252;2022-07-06T01:23:02;25.20;40.90
45843;DHT22;31563;51.744;8.252;2022-07-06T01:25:30;25.30;41.00
45843;DHT22;31563;51.744;8.252;2022-07-06T01:27:59;25.20;40.90
45843;DHT22;31563;51.744;8.252;2022-07-06T01:30:27;25.20;40.70
45843;DHT22;31563;51.744;8.252;2022-07-06T01:32:55;25.20;41.30
45843;DHT22;31563;51.744;8.252;2022-07-06T01:35:24;25.20;41.60
45843;DHT22;31563;51.744;8.252;2022-07-06T01:37:55;25.20;41.60
45843;DHT22;31563;51.744;8.252;2022-07-06T01:40:24;25.20;41.30
45843;DHT22;31563;51.744;8.252;2022-07-06T01:42:52;25.20;41.30
45843;DHT22;31563;51.744;8.252;2022-07-06T01:45:20;25.20;41.20
45843;DHT22;31563;51.744;8.252;2022-07-06T01:47:48;25.10;41.10
45843;DHT22;31563;51.744;8.252;2022-07-06T01:50:16;25.10;41.20
45843;DHT22;31563;51.744;8.252;2022-07-06T01:52:44;25.10;41.10
45843;DHT22;31563;51.744;8.252;2022-07-06T01:55:14;25.00;41.20
45843;DHT22;31563;51.744;8.252;2022-07-06T01:57:42;25.00;41.20
45843;DHT22;31563;51.744;8.252;2022-07-06T02:00:11;25.10;41.20
45843;DHT22;31563;51.744;8.252;2022-07-06T02:02:39;25.00;41.10
45843;DHT22;31563;51.744;8.252;2022-07-06T02:05:08;25.00;41.10
45843;DHT22;31563;51.744;8.252;2022-07-06T02:07:36;24.90;41.00
45843;DHT22;31563;51.744;8.252;2022-07-06T02:10:05;24.90;41.10
45843;DHT22;31563;51.744;8.252;2022-07-06T02:12:34;24.90;41.20
45843;DHT22;31563;51.744;8.252;2022-07-06T02:15:03;24.90;41.20
45843;DHT22;31563;51.744;8.252;2022-07-06T02:17:31;24.80;41.10
45843;DHT22;31563;51.744;8.252;2022-07-06T02:19:59;24.80;41.30
45843;DHT22;31563;51.744;8.252;2022-07-06T02:22:28;24.70;41.30
45843;DHT22;31563;51.744;8.252;2022-07-06T02:24:56;24.70;41.30
45843;DHT22;31563;51.744;8.252;2022-07-06T02:27:24;24.70;41.40
45843;DHT22;31563;51.744;8.252;2022-07-06T02:29:54;24.60;41.30
45843;DHT22;31563;51.744;8.252;2022-07-06T02:32:22;24.60;41.40
45843;DHT22;31563;51.744;8.252;2022-07-06T02:34:50;24.70;41.40
45843;DHT22;31563;51.744;8.252;2022-07-06T02:37:19;24.70;41.40
45843;DHT22;31563;51.744;8.252;2022-07-06T02:39:47;24.60;41.30
45843;DHT22;31563;51.744;8.252;2022-07-06T02:42:15;24.60;41.30
45843;DHT22;31563;51.744;8.252;2022-07-06T02:44:44;24.60;41.30
45843;DHT22;31563;51.744;8.252;2022-07-06T02:47:13;24.60;41.20
45843;DHT22;31563;51.744;8.252;2022-07-06T02:49:41;24.60;41.20
45843;DHT22;31563;51.744;8.252;2022-07-06T02:52:10;24.60;41.20
45843;DHT22;31563;51.744;8.252;2022-07-06T02:54:38;24.50;41.10
45843;DHT22;31563;51.744;8.252;2022-07-06T02:57:06;24.50;41.30
45843;DHT22;31563;51.744;8.252;2022-07-06T02:59:34;24.50;41.30
45843;DHT22;31563;51.744;8.252;2022-07-06T03:02:03;24.50;41.30
45843;DHT22;31563;51.744;8.252;2022-07-06T03:04:33;24.50;41.30
45843;DHT22;31563;51.744;8.252;2022-07-06T03:07:02;24.40;41.40
45843;DHT22;31563;51.744;8.252;2022-07-06T03:09:30;24.40;41.50
45843;DHT22;31563;51.744;8.252;2022-07-06T03:11:58;24.40;41.50
45843;DHT22;31563;51.744;8.252;2022-07-06T03:14:26;24.40;41.50
45843;DHT22;31563;51.744;8.252;2022-07-06T03:16:54;24.40;41.50
45843;DHT22;31563;51.744;8.252;2022-07-06T03:19:23;24.40;41.40
45843;DHT22;31563;51.744;8.252;2022-07-06T03:21:52;24.40;41.50
45843;DHT22;31563;51.744;8.252;2022-07-06T03:24:21;24.40;41.40
45843;DHT22;31563;51.744;8.252;2022-07-06T03:26:49;24.40;41.50
45843;DHT22;31563;51.744;8.252;2022-07-06T03:29:17;24.40;41.50
45843;DHT22;31563;51.744;8.252;2022-07-06T03:31:45;24.20;41.40
45843;DHT22;31563;51.744;8.252;2022-07-06T03:34:14;24.30;41.70
45843;DHT22;31563;51.744;8.252;2022-07-06T03:36:42;24.30;41.70
45843;DHT22;31563;51.744;8.252;2022-07-06T03:39:12;24.30;41.60
45843;DHT22;31563;51.744;8.252;2022-07-06T03:41:40;24.30;41.50
45843;DHT22;31563;51.744;8.252;2022-07-06T03:44:08;24.20;41.50
45843;DHT22;31563;51.744;8.252;2022-07-06T03:46:36;24.30;41.60
45843;DHT22;31563;51.744;8.252;2022-07-06T03:49:05;24.20;41.60
45843;DHT22;31563;51.744;8.252;2022-07-06T03:51:33;24.20;41.60
45843;DHT22;31563;51.744;8.252;2022-07-06T03:54:01;24.20;41.70
45843;DHT22;31563;51.744;8.252;2022-07-06T03:56:31;24.20;41.70
45843;DHT22;31563;51.744;8.252;2022-07-06T03:59:02;24.20;41.70
45843;DHT22;31563;51.744;8.252;2022-07-06T04:01:31;24.10;41.70
45843;DHT22;31563;51.744;8.252;2022-07-06T04:03:59;24.10;41.80
45843;DHT22;31563;51.744;8.252;2022-07-06T04:06:28;24.10;41.80
45843;DHT22;31563;51.744;8.252;2022-07-06T04:08:57;24.10;41.80
45843;DHT22;31563;51.744;8.252;2022-07-06T04:11:25;24.10;41.90
45843;DHT22;31563;51.744;8.252;2022-07-06T04:13:55;24.20;41.90
45843;DHT22;31563;51.744;8.252;2022-07-06T04:16:23;24.10;41.80
45843;DHT22;31563;51.744;8.252;2022-07-06T04:18:51;24.10;41.90
45843;DHT22;31563;51.744;8.252;2022-07-06T04:21:20;24.10;42.00
45843;DHT22;31563;51.744;8.252;2022-07-06T04:23:48;24.10;41.90
45843;DHT22;31563;51.744;8.252;2022-07-06T04:26:16;24.10;41.80
45843;DHT22;31563;51.744;8.252;2022-07-06T04:28:45;24.20;42.00
45843;DHT22;31563;51.744;8.252;2022-07-06T04:31:14;24.20;42.00
45843;DHT22;31563;51.744;8.252;2022-07-06T04:33:43;24.20;42.00
45843;DHT22;31563;51.744;8.252;2022-07-06T04:36:11;24.30;41.90
45843;DHT22;31563;51.744;8.252;2022-07-06T04:38:39;24.40;41.90
45843;DHT22;31563;51.744;8.252;2022-07-06T04:41:07;24.50;42.20
45843;DHT22;31563;51.744;8.252;2022-07-06T04:43:36;24.50;43.20
45843;DHT22;31563;51.744;8.252;2022-07-06T04:46:04;24.60;43.40
45843;DHT22;31563;51.744;8.252;2022-07-06T04:48:34;24.70;43.10
45843;DHT22;31563;51.744;8.252;2022-07-06T04:51:06;24.70;43.20
45843;DHT22;31563;51.744;8.252;2022-07-06T04:53:34;24.70;43.40
45843;DHT22;31563;51.744;8.252;2022-07-06T04:56:04;24.60;43.40
45843;DHT22;31563;51.744;8.252;2022-07-06T04:58:32;24.50;43.40
45843;DHT22;31563;51.744;8.252;2022-07-06T05:01:00;24.60;43.70
45843;DHT22;31563;51.744;8.252;2022-07-06T05:03:28;24.70;43.10
45843;DHT22;31563;51.744;8.252;2022-07-06T05:05:58;24.70;43.10
45843;DHT22;31563;51.744;8.252;2022-07-06T05:08:26;24.70;42.90
45843;DHT22;31563;51.744;8.252;2022-07-06T05:10:54;24.70;43.20
45843;DHT22;31563;51.744;8.252;2022-07-06T05:13:22;24.60;43.00
45843;DHT22;31563;51.744;8.252;2022-07-06T05:15:51;24.60;43.20
45843;DHT22;31563;51.744;8.252;2022-07-06T05:18:19;24.60;43.10
45843;DHT22;31563;51.744;8.252;2022-07-06T05:20:48;24.60;43.70
45843;DHT22;31563;51.744;8.252;2022-07-06T05:23:17;24.60;43.20
45843;DHT22;31563;51.744;8.252;2022-07-06T05:25:45;24.70;43.50
45843;DHT22;31563;51.744;8.252;2022-07-06T05:28:14;24.70;42.80
45843;DHT22;31563;51.744;8.252;2022-07-06T05:30:42;24.50;43.10
45843;DHT22;31563;51.744;8.252;2022-07-06T05:33:10;24.60;43.30
45843;DHT22;31563;51.744;8.252;2022-07-06T05:35:38;24.60;43.40
45843;DHT22;31563;51.744;8.252;2022-07-06T05:38:19;24.60;43.40
45843;DHT22;31563;51.744;8.252;2022-07-06T05:40:48;24.50;43.10
45843;DHT22;31563;51.744;8.252;2022-07-06T05:43:16;24.60;43.50
45843;DHT22;31563;51.744;8.252;2022-07-06T05:45:45;24.80;43.20
45843;DHT22;31563;51.744;8.252;2022-07-06T05:48:13;24.90;42.90
45843;DHT22;31563;51.744;8.252;2022-07-06T05:50:59;24.90;42.80
45843;DHT22;31563;51.744;8.252;2022-07-06T05:53:29;24.90;42.90
45843;DHT22;31563;51.744;8.252;2022-07-06T05:55:57;24.70;43.00
45843;DHT22;31563;51.744;8.252;2022-07-06T05:58:25;24.80;43.00
45843;DHT22;31563;51.744;8.252;2022-07-06T06:00:54;24.80;42.90
45843;DHT22;31563;51.744;8.252;2022-07-06T06:03:22;24.90;43.00
45843;DHT22;31563;51.744;8.252;2022-07-06T06:05:51;25.00;42.60
45843;DHT22;31563;51.744;8.252;2022-07-06T06:08:19;24.90;43.10
45843;DHT22;31563;51.744;8.252;2022-07-06T06:10:49;24.90;43.40
45843;DHT22;31563;51.744;8.252;2022-07-06T06:13:17;25.10;43.20
45843;DHT22;31563;51.744;8.252;2022-07-06T06:15:45;25.20;42.60
45843;DHT22;31563;51.744;8.252;2022-07-06T06:18:14;25.20;42.40
45843;DHT22;31563;51.744;8.252;2022-07-06T06:20:45;25.10;42.50
45843;DHT22;31563;51.744;8.252;2022-07-06T06:23:13;24.90;42.50
45843;DHT22;31563;51.744;8.252;2022-07-06T06:25:42;25.00;42.60
45843;DHT22;31563;51.744;8.252;2022-07-06T06:28:11;25.20;42.60
45843;DHT22;31563;51.744;8.252;2022-07-06T06:30:39;25.30;42.70
45843;DHT22;31563;51.744;8.252;2022-07-06T06:33:10;25.40;42.20
45843;DHT22;31563;51.744;8.252;2022-07-06T06:35:42;25.50;42.20
45843;DHT22;31563;51.744;8.252;2022-07-06T06:38:10;25.60;41.90
45843;DHT22;31563;51.744;8.252;2022-07-06T06:40:39;25.70;41.60
45843;DHT22;31563;51.744;8.252;2022-07-06T06:43:07;25.80;41.60
45843;DHT22;31563;51.744;8.252;2022-07-06T06:45:37;25.80;41.20
45843;DHT22;31563;51.744;8.252;2022-07-06T06:48:05;25.90;41.40
45843;DHT22;31563;51.744;8.252;2022-07-06T06:50:42;26.00;41.40
45843;DHT22;31563;51.744;8.252;2022-07-06T06:53:10;26.00;41.10
45843;DHT22;31563;51.744;8.252;2022-07-06T06:55:38;26.10;40.90
45843;DHT22;31563;51.744;8.252;2022-07-06T06:58:06;26.20;41.40
45843;DHT22;31563;51.744;8.252;2022-07-06T07:00:34;26.40;41.60
45843;DHT22;31563;51.744;8.252;2022-07-06T07:03:04;26.60;41.80
45843;DHT22;31563;51.744;8.252;2022-07-06T07:05:33;26.70;41.50
45843;DHT22;31563;51.744;8.252;2022-07-06T07:08:01;26.80;41.10
45843;DHT22;31563;51.744;8.252;2022-07-06T07:10:31;26.80;41.00
45843;DHT22;31563;51.744;8.252;2022-07-06T07:13:00;27.00;41.20
45843;DHT22;31563;51.744;8.252;2022-07-06T07:15:28;27.10;40.70
45843;DHT22;31563;51.744;8.252;2022-07-06T07:17:56;27.20;40.80
45843;DHT22;31563;51.744;8.252;2022-07-06T07:20:26;27.40;40.70
45843;DHT22;31563;51.744;8.252;2022-07-06T07:22:56;27.50;40.50
45843;DHT22;31563;51.744;8.252;2022-07-06T07:25:25;27.70;40.50
45843;DHT22;31563;51.744;8.252;2022-07-06T07:27:53;27.90;40.40
45843;DHT22;31563;51.744;8.252;2022-07-06T07:30:22;28.10;40.10
45843;DHT22;31563;51.744;8.252;2022-07-06T07:32:50;28.20;39.60
45843;DHT22;31563;51.744;8.252;2022-07-06T07:35:19;28.30;39.50
45843;DHT22;31563;51.744;8.252;2022-07-06T07:37:48;28.40;39.20
45843;DHT22;31563;51.744;8.252;2022-07-06T07:40:17;28.50;39.30
45843;DHT22;31563;51.744;8.252;2022-07-06T07:42:45;28.50;38.80
45843;DHT22;31563;51.744;8.252;2022-07-06T07:45:13;28.50;38.90
45843;DHT22;31563;51.744;8.252;2022-07-06T07:47:42;28.40;38.60
45843;DHT22;31563;51.744;8.252;2022-07-06T07:50:10;28.40;39.10
45843;DHT22;31563;51.744;8.252;2022-07-06T07:52:39;28.40;38.50
45843;DHT22;31563;51.744;8.252;2022-07-06T07:55:09;28.30;38.40
45843;DHT22;31563;51.744;8.252;2022-07-06T07:57:57;28.40;38.80
45843;DHT22;31563;51.744;8.252;2022-07-06T08:00:26;28.60;38.60
45843;DHT22;31563;51.744;8.252;2022-07-06T08:02:55;28.60;38.30
45843;DHT22;31563;51.744;8.252;2022-07-06T08:05:23;28.70;38.20
45843;DHT22;31563;51.744;8.252;2022-07-06T08:07:51;28.70;38.00
45843;DHT22;31563;51.744;8.252;2022-07-06T08:10:21;28.90;37.90
45843;DHT22;31563;51.744;8.252;2022-07-06T08:12:49;29.10;37.90
45843;DHT22;31563;51.744;8.252;2022-07-06T08:15:17;29.20;37.70
45843;DHT22;31563;51.744;8.252;2022-07-06T08:17:45;29.10;37.30
45843;DHT22;31563;51.744;8.252;2022-07-06T08:20:14;29.20;37.50
45843;DHT22;31563;51.744;8.252;2022-07-06T08:22:43;29.40;37.20
45843;DHT22;31563;51.744;8.252;2022-07-06T08:25:11;29.10;37.00
45843;DHT22;31563;51.744;8.252;2022-07-06T08:27:42;29.00;36.60
45843;DHT22;31563;51.744;8.252;2022-07-06T08:30:11;28.70;35.60
45843;DHT22;31563;51.744;8.252;2022-07-06T08:32:40;28.30;36.20
45843;DHT22;31563;51.744;8.252;2022-07-06T08:35:29;28.10;36.00
45843;DHT22;31563;51.744;8.252;2022-07-06T08:37:57;28.10;36.40
45843;DHT22;31563;51.744;8.252;2022-07-06T08:40:27;28.00;35.90
45843;DHT22;31563;51.744;8.252;2022-07-06T08:43:01;28.10;36.10
45843;DHT22;31563;51.744;8.252;2022-07-06T08:45:30;28.10;36.10
45843;DHT22;31563;51.744;8.252;2022-07-06T08:48:04;28.20;35.90
45843;DHT22;31563;51.744;8.252;2022-07-06T08:50:33;28.20;35.70
45843;DHT22;31563;51.744;8.252;2022-07-06T08:53:02;28.40;35.60
45843;DHT22;31563;51.744;8.252;2022-07-06T08:55:30;28.50;35.40
45843;DHT22;31563;51.744;8.252;2022-07-06T08:58:00;28.40;35.00
45843;DHT22;31563;51.744;8.252;2022-07-06T09:00:28;28.30;35.20
45843;DHT22;31563;51.744;8.252;2022-07-06T09:02:57;28.10;35.00
45843;DHT22;31563;51.744;8.252;2022-07-06T09:05:25;28.00;35.60
45843;DHT22;31563;51.744;8.252;2022-07-06T09:07:56;27.90;35.70
45843;DHT22;31563;51.744;8.252;2022-07-06T09:10:26;27.70;35.70
45843;DHT22;31563;51.744;8.252;2022-07-06T09:13:03;27.80;35.90
45843;DHT22;31563;51.744;8.252;2022-07-06T09:15:32;27.70;35.60
45843;DHT22;31563;51.744;8.252;2022-07-06T09:18:02;27.70;36.00
45843;DHT22;31563;51.744;8.252;2022-07-06T09:20:31;27.70;35.70
45843;DHT22;31563;51.744;8.252;2022-07-06T09:23:01;27.70;35.70
45843;DHT22;31563;51.744;8.252;2022-07-06T09:25:30;27.80;35.40
45843;DHT22;31563;51.744;8.252;2022-07-06T09:27:59;27.80;34.90
45843;DHT22;31563;51.744;8.252;2022-07-06T09:30:31;27.80;35.30
45843;DHT22;31563;51.744;8.252;2022-07-06T09:32:59;27.40;35.50
45843;DHT22;31563;51.744;8.252;2022-07-06T09:35:28;27.50;35.60
45843;DHT22;31563;51.744;8.252;2022-07-06T09:38:01;27.40;35.20
45843;DHT22;31563;51.744;8.252;2022-07-06T09:40:31;27.40;34.90
45843;DHT22;31563;51.744;8.252;2022-07-06T09:43:10;27.40;34.80
45843;DHT22;31563;51.744;8.252;2022-07-06T09:45:41;27.40;34.80
45843;DHT22;31563;51.744;8.252;2022-07-06T09:48:11;27.60;34.90
45843;DHT22;31563;51.744;8.252;2022-07-06T09:50:42;28.50;35.20
45843;DHT22;31563;51.744;8.252;2022-07-06T09:53:11;29.50;34.30
45843;DHT22;31563;51.744;8.252;2022-07-06T09:55:43;30.60;33.70
45843;DHT22;31563;51.744;8.252;2022-07-06T09:58:11;31.50;32.70
45843;DHT22;31563;51.744;8.252;2022-07-06T10:00:41;32.30;31.30
45843;DHT22;31563;51.744;8.252;2022-07-06T10:03:09;32.60;30.40
45843;DHT22;31563;51.744;8.252;2022-07-06T10:05:39;33.00;30.00
45843;DHT22;31563;51.744;8.252;2022-07-06T10:08:09;33.20;29.30
45843;DHT22;31563;51.744;8.252;2022-07-06T10:10:38;33.30;29.20
45843;DHT22;31563;51.744;8.252;2022-07-06T10:13:07;33.60;28.80
45843;DHT22;31563;51.744;8.252;2022-07-06T10:15:37;33.90;28.80
45843;DHT22;31563;51.744;8.252;2022-07-06T10:18:08;33.90;28.50
45843;DHT22;31563;51.744;8.252;2022-07-06T10:20:38;33.90;28.00
45843;DHT22;31563;51.744;8.252;2022-07-06T10:23:10;34.20;28.30
45843;DHT22;31563;51.744;8.252;2022-07-06T10:25:39;34.80;27.90
45843;DHT22;31563;51.744;8.252;2022-07-06T10:28:07;34.40;27.00
45843;DHT22;31563;51.744;8.252;2022-07-06T10:30:42;33.80;27.20
45843;DHT22;31563;51.744;8.252;2022-07-06T10:33:14;33.40;27.50
45843;DHT22;31563;51.744;8.252;2022-07-06T10:35:44;33.20;27.80
45843;DHT22;31563;51.744;8.252;2022-07-06T10:38:12;32.90;27.60
45843;DHT22;31563;51.744;8.252;2022-07-06T10:40:41;32.70;27.70
45843;DHT22;31563;51.744;8.252;2022-07-06T10:43:36;32.60;27.90
45843;DHT22;31563;51.744;8.252;2022-07-06T10:46:09;32.50;28.00
45843;DHT22;31563;51.744;8.252;2022-07-06T10:48:40;32.30;28.50
45843;DHT22;31563;51.744;8.252;2022-07-06T10:51:11;32.20;29.90
45843;DHT22;31563;51.744;8.252;2022-07-06T10:53:40;32.20;29.80
45843;DHT22;31563;51.744;8.252;2022-07-06T10:56:11;31.90;30.30
45843;DHT22;31563;51.744;8.252;2022-07-06T10:58:45;31.80;30.10
45843;DHT22;31563;51.744;8.252;2022-07-06T11:01:15;31.60;30.10
45843;DHT22;31563;51.744;8.252;2022-07-06T11:03:46;31.50;30.00
45843;DHT22;31563;51.744;8.252;2022-07-06T11:06:16;31.30;29.90
45843;DHT22;31563;51.744;8.252;2022-07-06T11:08:53;31.30;30.00
45843;DHT22;31563;51.744;8.252;2022-07-06T11:11:24;31.40;30.00
45843;DHT22;31563;51.744;8.252;2022-07-06T11:13:59;31.30;30.00
45843;DHT22;31563;51.744;8.252;2022-07-06T11:16:30;31.20;30.10
45843;DHT22;31563;51.744;8.252;2022-07-06T11:19:05;31.10;30.50
45843;DHT22;31563;51.744;8.252;2022-07-06T11:21:46;31.00;30.50
45843;DHT22;31563;51.744;8.252;2022-07-06T11:24:16;30.80;30.50
45843;DHT22;31563;51.744;8.252;2022-07-06T11:26:46;30.70;30.40
45843;DHT22;31563;51.744;8.252;2022-07-06T11:29:16;30.60;30.60
45843;DHT22;31563;51.744;8.252;2022-07-06T11:31:46;30.60;30.60
45843;DHT22;31563;51.744;8.252;2022-07-06T11:34:21;30.70;30.20
45843;DHT22;31563;51.744;8.252;2022-07-06T11:36:54;30.60;30.20
45843;DHT22;31563;51.744;8.252;2022-07-06T11:39:25;30.60;30.30
45843;DHT22;31563;51.744;8.252;2022-07-06T11:41:54;30.60;30.00
45843;DHT22;31563;51.744;8.252;2022-07-06T11:44:23;30.40;30.00
45843;DHT22;31563;51.744;8.252;2022-07-06T11:46:51;30.40;30.00
45843;DHT22;31563;51.744;8.252;2022-07-06T11:49:21;30.30;30.10
45843;DHT22;31563;51.744;8.252;2022-07-06T11:51:49;30.50;30.70
45843;DHT22;31563;51.744;8.252;2022-07-06T11:54:18;30.50;30.00
45843;DHT22;31563;51.744;8.252;2022-07-06T11:56:48;30.30;30.00
45843;DHT22;31563;51.744;8.252;2022-07-06T11:59:20;30.30;30.00
45843;DHT22;31563;51.744;8.252;2022-07-06T12:01:49;30.30;30.00
45843;DHT22;31563;51.744;8.252;2022-07-06T12:04:18;30.30;30.00
45843;DHT22;31563;51.744;8.252;2022-07-06T12:06:48;30.20;30.00
45843;DHT22;31563;51.744;8.252;2022-07-06T12:09:16;30.40;30.50
45843;DHT22;31563;51.744;8.252;2022-07-06T12:11:45;30.70;30.20
45843;DHT22;31563;51.744;8.252;2022-07-06T12:14:15;30.90;30.00
45843;DHT22;31563;51.744;8.252;2022-07-06T12:16:45;31.20;30.10
45843;DHT22;31563;51.744;8.252;2022-07-06T12:19:14;31.30;29.90
45843;DHT22;31563;51.744;8.252;2022-07-06T12:21:45;31.50;29.80
45843;DHT22;31563;51.744;8.252;2022-07-06T12:24:22;31.60;29.60
45843;DHT22;31563;51.744;8.252;2022-07-06T12:26:52;31.60;29.60
45843;DHT22;31563;51.744;8.252;2022-07-06T12:29:20;31.70;29.80
45843;DHT22;31563;51.744;8.252;2022-07-06T12:31:50;31.90;29.70
45843;DHT22;31563;51.744;8.252;2022-07-06T12:34:20;32.10;29.40
45843;DHT22;31563;51.744;8.252;2022-07-06T12:36:50;32.20;29.40
45843;DHT22;31563;51.744;8.252;2022-07-06T12:39:21;32.10;29.30
45843;DHT22;31563;51.744;8.252;2022-07-06T12:41:51;31.80;29.20
45843;DHT22;31563;51.744;8.252;2022-07-06T12:44:22;31.40;28.70
45843;DHT22;31563;51.744;8.252;2022-07-06T12:47:00;31.00;28.90
45843;DHT22;31563;51.744;8.252;2022-07-06T12:49:29;30.90;29.20
45843;DHT22;31563;51.744;8.252;2022-07-06T12:51:59;31.00;29.50
45843;DHT22;31563;51.744;8.252;2022-07-06T12:54:31;31.30;29.60
45843;DHT22;31563;51.744;8.252;2022-07-06T12:57:03;31.50;29.20
45843;DHT22;31563;51.744;8.252;2022-07-06T12:59:34;31.70;28.80
45843;DHT22;31563;51.744;8.252;2022-07-06T13:02:03;31.80;28.80
45843;DHT22;31563;51.744;8.252;2022-07-06T13:04:32;31.70;28.80
45843;DHT22;31563;51.744;8.252;2022-07-06T13:07:01;31.50;28.40
45843;DHT22;31563;51.744;8.252;2022-07-06T13:09:35;31.30;28.40
45843;DHT22;31563;51.744;8.252;2022-07-06T13:12:04;31.10;28.40
45843;DHT22;31563;51.744;8.252;2022-07-06T13:14:32;30.90;28.80
45843;DHT22;31563;51.744;8.252;2022-07-06T13:17:00;31.10;28.70
45843;DHT22;31563;51.744;8.252;2022-07-06T13:19:29;31.20;28.80
45843;DHT22;31563;51.744;8.252;2022-07-06T13:21:57;31.50;28.90
45843;DHT22;31563;51.744;8.252;2022-07-06T13:24:25;31.70;28.60
45843;DHT22;31563;51.744;8.252;2022-07-06T13:26:57;31.90;28.40
45843;DHT22;31563;51.744;8.252;2022-07-06T13:29:25;31.90;28.00
45843;DHT22;31563;51.744;8.252;2022-07-06T13:31:53;31.70;28.00
45843;DHT22;31563;51.744;8.252;2022-07-06T13:34:21;31.60;28.40
45843;DHT22;31563;51.744;8.252;2022-07-06T13:36:52;31.80;28.70
45843;DHT22;31563;51.744;8.252;2022-07-06T13:39:21;32.10;28.30
45843;DHT22;31563;51.744;8.252;2022-07-06T13:41:50;32.10;28.00
45843;DHT22;31563;51.744;8.252;2022-07-06T13:44:22;32.00;27.70
45843;DHT22;31563;51.744;8.252;2022-07-06T13:46:50;32.00;27.80
45843;DHT22;31563;51.744;8.252;2022-07-06T13:49:19;31.70;27.60
45843;DHT22;31563;51.744;8.252;2022-07-06T13:51:47;31.40;28.00
45843;DHT22;31563;51.744;8.252;2022-07-06T13:54:15;31.70;28.20
45843;DHT22;31563;51.744;8.252;2022-07-06T13:56:46;32.00;28.50
45843;DHT22;31563;51.744;8.252;2022-07-06T13:59:15;32.50;28.20
45843;DHT22;31563;51.744;8.252;2022-07-06T14:01:44;32.60;27.80
45843;DHT22;31563;51.744;8.252;2022-07-06T14:04:12;32.70;27.80
45843;DHT22;31563;51.744;8.252;2022-07-06T14:06:41;32.70;27.70
45843;DHT22;31563;51.744;8.252;2022-07-06T14:09:09;32.80;27.20
45843;DHT22;31563;51.744;8.252;2022-07-06T14:11:37;32.70;27.20
45843;DHT22;31563;51.744;8.252;2022-07-06T14:14:05;32.80;27.50
45843;DHT22;31563;51.744;8.252;2022-07-06T14:16:35;32.80;27.30
45843;DHT22;31563;51.744;8.252;2022-07-06T14:19:04;32.60;27.10
45843;DHT22;31563;51.744;8.252;2022-07-06T14:21:32;32.60;27.20
45843;DHT22;31563;51.744;8.252;2022-07-06T14:24:00;32.40;26.80
45843;DHT22;31563;51.744;8.252;2022-07-06T14:26:29;31.90;27.00
45843;DHT22;31563;51.744;8.252;2022-07-06T14:28:57;31.50;27.00
45843;DHT22;31563;51.744;8.252;2022-07-06T14:31:26;31.60;27.40
45843;DHT22;31563;51.744;8.252;2022-07-06T14:33:54;31.30;27.30
45843;DHT22;31563;51.744;8.252;2022-07-06T14:36:23;31.60;27.90
45843;DHT22;31563;51.744;8.252;2022-07-06T14:38:51;31.80;27.90
45843;DHT22;31563;51.744;8.252;2022-07-06T14:41:20;32.10;27.80
45843;DHT22;31563;51.744;8.252;2022-07-06T14:43:48;32.10;27.50
45843;DHT22;31563;51.744;8.252;2022-07-06T14:46:17;31.50;27.30
45843;DHT22;31563;51.744;8.252;2022-07-06T14:48:45;31.40;27.80
45843;DHT22;31563;51.744;8.252;2022-07-06T14:51:13;31.50;27.80
45843;DHT22;31563;51.744;8.252;2022-07-06T14:53:43;31.30;27.70
45843;DHT22;31563;51.744;8.252;2022-07-06T14:56:11;31.10;27.90
45843;DHT22;31563;51.744;8.252;2022-07-06T14:58:39;31.00;28.20
45843;DHT22;31563;51.744;8.252;2022-07-06T15:01:27;30.90;28.30
45843;DHT22;31563;51.744;8.252;2022-07-06T15:03:56;30.80;28.20
45843;DHT22;31563;51.744;8.252;2022-07-06T15:06:24;30.60;28.40
45843;DHT22;31563;51.744;8.252;2022-07-06T15:09:14;30.50;28.40
45843;DHT22;31563;51.744;8.252;2022-07-06T15:11:43;30.40;28.40
45843;DHT22;31563;51.744;8.252;2022-07-06T15:14:11;30.30;28.50
45843;DHT22;31563;51.744;8.252;2022-07-06T15:16:42;30.20;28.60
45843;DHT22;31563;51.744;8.252;2022-07-06T15:19:11;30.10;28.50
45843;DHT22;31563;51.744;8.252;2022-07-06T15:21:39;30.00;28.70
45843;DHT22;31563;51.744;8.252;2022-07-06T15:24:08;29.90;28.70
45843;DHT22;31563;51.744;8.252;2022-07-06T15:26:37;29.70;28.80
45843;DHT22;31563;51.744;8.252;2022-07-06T15:29:05;29.70;29.00
45843;DHT22;31563;51.744;8.252;2022-07-06T15:31:33;29.80;29.10
45843;DHT22;31563;51.744;8.252;2022-07-06T15:34:02;29.90;29.30
45843;DHT22;31563;51.744;8.252;2022-07-06T15:36:31;30.00;29.40
45843;DHT22;31563;51.744;8.252;2022-07-06T15:38:59;30.20;29.50
45843;DHT22;31563;51.744;8.252;2022-07-06T15:41:27;30.60;29.50
45843;DHT22;31563;51.744;8.252;2022-07-06T15:43:57;31.00;29.20